Time;durP1;ratioP1;P1;durP2;ratioP2;P2;SDS_P1;SDS_P2;PMS_P1;PMS_P2;Temp;Humidity;BMP_temperature;BMP_pressure;BME280_temperature;BME280_humidity;BME280_pressure;Samples;Min_cycle;Max_cycle;Signal;HPM_P1;HPM_P2
2022/08/13 00:00:59;;;;;;;3.38;2.40;;;21.70;78.70;;;;;;5092762;28;20433;-64
2022/08/13 00:03:26;;;;;;;4.38;2.78;;;21.60;77.90;;;;;;5075068;28;20439;-64
2022/08/13 00:05:52;;;;;;;4.20;2.63;;;21.60;77.80;;;;;;5074555;28;20557;-64
2022/08/13 00:08:22;;;;;;;4.20;2.10;;;21.60;77.90;;;;;;5092688;28;20118;-64
2022/08/13 00:10:48;;;;;;;3.60;2.55;;;21.60;78.30;;;;;;5092691;28;20132;-64
2022/08/13 00:13:16;;;;;;;2.67;2.17;;;21.50;79.20;;;;;;5092748;28;20032;-64
2022/08/13 00:15:43;;;;;;;6.63;2.50;;;21.50;79.90;;;;;;5107201;22;20485;-64
2022/08/13 00:18:18;;;;;;;3.50;2.50;;;21.40;81.10;;;;;;5091009;28;20460;-64
2022/08/13 00:20:48;;;;;;;4.10;2.47;;;21.40;82.00;;;;;;5092391;28;20409;-64
2022/08/13 00:23:16;;;;;;;4.82;2.40;;;21.40;82.80;;;;;;5092580;28;20529;-64
2022/08/13 00:25:44;;;;;;;3.97;3.05;;;21.30;83.70;;;;;;5092592;28;20042;-64
2022/08/13 00:28:10;;;;;;;4.72;2.83;;;21.30;84.80;;;;;;5092261;28;20448;-64
2022/08/13 00:30:38;;;;;;;3.33;2.60;;;21.20;85.20;;;;;;5092328;28;20521;-64
2022/08/13 00:33:12;;;;;;;7.72;2.85;;;21.20;85.20;;;;;;5093122;28;20040;-66
2022/08/13 00:35:42;;;;;;;7.30;3.15;;;21.20;85.50;;;;;;5092529;28;20044;-66
2022/08/13 00:38:13;;;;;;;5.45;2.88;;;21.20;86.80;;;;;;5092457;28;20036;-66
2022/08/13 00:40:47;;;;;;;3.88;2.50;;;21.10;87.80;;;;;;5090766;28;20040;-66
2022/08/13 00:43:14;;;;;;;3.33;2.45;;;21.10;88.50;;;;;;5092123;28;20039;-66
2022/08/13 00:45:40;;;;;;;6.22;2.50;;;21.00;90.10;;;;;;5092413;28;20421;-66
2022/08/13 00:50:52;;;;;;;3.53;3.00;;;21.00;89.30;;;;;;5091595;28;20480;-67
2022/08/13 00:53:20;;;;;;;5.13;2.85;;;21.00;89.40;;;;;;5092249;28;20032;-67
2022/08/13 00:55:49;;;;;;;6.55;3.45;;;21.00;88.80;;;;;;5092067;28;20093;-67
2022/08/13 00:58:21;;;;;;;4.80;3.85;;;21.00;88.70;;;;;;5091977;28;20520;-67
2022/08/13 01:00:49;;;;;;;5.38;3.35;;;20.90;88.30;;;;;;5091863;28;20044;-67
2022/08/13 01:03:16;;;;;;;3.60;3.30;;;21.00;88.10;;;;;;5092073;28;20085;-67
2022/08/13 01:05:43;;;;;;;4.93;2.95;;;21.00;88.20;;;;;;5091869;28;20471;-66
2022/08/13 01:08:10;;;;;;;6.65;3.35;;;21.00;87.90;;;;;;5091879;28;20405;-66
2022/08/13 01:10:37;;;;;;;8.23;3.58;;;21.00;88.00;;;;;;5091848;28;20111;-66
2022/08/13 01:13:03;;;;;;;6.50;3.38;;;21.00;88.00;;;;;;5092116;28;20039;-67
2022/08/13 01:15:31;;;;;;;10.13;3.63;;;20.90;88.00;;;;;;5091682;28;20051;-66
2022/08/13 01:17:58;;;;;;;4.60;3.25;;;21.00;88.40;;;;;;5091888;28;20111;-66
2022/08/13 01:20:27;;;;;;;4.53;3.25;;;20.90;88.40;;;;;;5091608;28;20121;-66
2022/08/13 01:22:53;;;;;;;6.88;3.72;;;20.90;88.80;;;;;;5091835;28;20036;-65
2022/08/13 01:25:26;;;;;;;5.10;3.53;;;20.80;88.90;;;;;;5091900;28;20044;-67
2022/08/13 01:27:53;;;;;;;4.40;3.03;;;20.80;89.00;;;;;;5091834;28;20040;-66
2022/08/13 01:30:22;;;;;;;5.25;3.45;;;20.80;89.30;;;;;;5090357;28;20419;-66
2022/08/13 01:32:48;;;;;;;8.63;4.32;;;20.70;89.30;;;;;;5091623;28;20482;-67
2022/08/13 01:35:16;;;;;;;6.05;3.40;;;20.70;89.60;;;;;;5091519;28;20588;-67
2022/08/13 01:37:43;;;;;;;5.55;3.53;;;20.70;90.10;;;;;;5091831;28;20143;-67
2022/08/13 01:40:10;;;;;;;5.25;3.50;;;20.50;89.70;;;;;;5091447;28;20097;-66
2022/08/13 01:42:43;;;;;;;4.90;3.88;;;20.60;89.70;;;;;;5090553;28;20047;-66
2022/08/13 01:45:09;;;;;;;;;;;20.60;89.30;;;;;;5091979;28;20047;-66
2022/08/13 01:50:29;;;;;;;5.38;4.13;;;20.50;89.80;;;;;;5091380;28;20071;-66
2022/08/13 01:53:02;;;;;;;5.25;4.18;;;20.40;89.50;;;;;;5090274;28;20082;-66
2022/08/13 01:55:39;;;;;;;;;;;20.50;89.50;;;;;;5091895;28;20067;-66
2022/08/13 01:58:18;;;;;;;9.80;4.10;;;20.40;89.40;;;;;;5090076;28;19922;-66
2022/08/13 02:00:46;;;;;;;7.25;4.47;;;20.40;89.50;;;;;;5091377;28;20040;-67
2022/08/13 02:03:16;;;;;;;8.07;3.67;;;20.40;89.00;;;;;;5094310;28;20105;-67
2022/08/13 02:05:42;;;;;;;6.80;4.00;;;20.40;88.80;;;;;;5095200;28;20036;-66
2022/08/13 02:08:11;;;;;;;5.70;3.80;;;20.40;88.50;;;;;;5095203;28;20036;-66
2022/08/13 02:10:43;;;;;;;6.05;3.83;;;20.40;88.70;;;;;;5094807;28;20036;-67
2022/08/13 02:13:15;;;;;;;5.78;4.40;;;20.40;88.40;;;;;;5095346;28;20036;-65
2022/08/13 02:15:42;;;;;;;6.68;4.25;;;20.40;88.40;;;;;;5094979;28;20157;-66
2022/08/13 02:18:16;;;;;;;4.47;3.60;;;20.40;88.40;;;;;;5095109;28;20502;-66
2022/08/13 02:20:44;;;;;;;6.30;4.15;;;20.30;88.40;;;;;;5094823;28;20051;-66
2022/08/13 02:23:10;;;;;;;6.63;4.30;;;20.30;88.60;;;;;;5094839;28;20051;-66
2022/08/13 02:25:36;;;;;;;5.75;4.00;;;20.20;88.40;;;;;;5094661;28;20040;-66
2022/08/13 02:28:02;;;;;;;5.50;4.10;;;20.30;88.10;;;;;;5094948;28;20043;-66
2022/08/13 02:30:29;;;;;;;6.47;3.97;;;20.30;88.00;;;;;;5094626;28;20039;-67
2022/08/13 02:33:00;;;;;;;5.30;4.05;;;20.30;87.70;;;;;;5094846;28;20040;-67
2022/08/13 02:35:27;;;;;;;8.50;4.40;;;20.30;87.50;;;;;;5093435;28;20115;-67
2022/08/13 02:37:54;;;;;;;5.43;4.18;;;20.30;87.60;;;;;;5094550;28;20036;-67
2022/08/13 02:43:05;;;;;;;5.43;3.92;;;20.20;87.40;;;;;;5094477;28;20540;-66
2022/08/13 02:45:31;;;;;;;6.72;3.95;;;20.20;87.30;;;;;;5094510;28;20040;-66
2022/08/13 02:47:57;;;;;;;6.18;4.32;;;20.20;87.30;;;;;;5094369;28;20036;-67
2022/08/13 02:50:24;;;;;;;6.55;4.13;;;20.20;87.40;;;;;;5094060;28;20067;-66
2022/08/13 02:52:51;;;;;;;5.72;4.22;;;20.20;87.30;;;;;;5094570;28;20067;-67
2022/08/13 02:55:23;;;;;;;7.22;4.57;;;20.10;87.30;;;;;;5094324;28;20032;-66
2022/08/13 02:57:50;;;;;;;6.20;3.95;;;20.10;87.30;;;;;;5094240;28;20055;-66
2022/08/13 03:00:19;;;;;;;8.63;4.10;;;20.00;87.40;;;;;;5093981;28;20039;-66
2022/08/13 03:02:45;;;;;;;9.02;4.43;;;20.00;87.60;;;;;;5094099;28;20467;-66
2022/08/13 03:05:19;;;;;;;11.23;5.22;;;20.00;87.70;;;;;;5094277;28;20122;-67
2022/08/13 03:07:47;;;;;;;10.70;4.93;;;20.00;87.50;;;;;;5094307;28;20051;-67
2022/08/13 03:10:16;;;;;;;10.18;4.75;;;20.00;87.80;;;;;;5093775;28;20573;-66
2022/08/13 03:12:45;;;;;;;11.43;4.38;;;20.00;88.10;;;;;;5093961;28;20040;-67
2022/08/13 03:15:14;;;;;;;6.30;4.10;;;19.90;88.60;;;;;;5092441;28;20044;-66
2022/08/13 03:17:40;;;;;;;5.95;4.32;;;19.90;88.00;;;;;;5093899;28;20047;-66
2022/08/13 03:20:15;;;;;;;7.53;4.13;;;19.90;88.30;;;;;;5093778;28;20113;-67
2022/08/13 03:22:56;;;;;;;9.15;4.40;;;19.80;88.00;;;;;;5093866;28;20040;-66
2022/08/13 03:25:24;;;;;;;10.00;4.95;;;19.80;88.00;;;;;;5093821;28;20402;-66
2022/08/13 03:27:50;;;;;;;9.85;5.22;;;19.80;88.10;;;;;;5093615;28;20048;-66
2022/08/13 03:30:17;;;;;;;6.68;4.90;;;19.80;88.20;;;;;;5093564;28;20062;-66
2022/08/13 03:32:45;;;;;;;7.47;4.28;;;19.80;87.80;;;;;;5093693;28;20036;-66
2022/08/13 03:35:14;;;;;;;7.82;4.50;;;19.70;87.90;;;;;;5093608;28;20073;-67
2022/08/13 03:37:41;;;;;;;6.78;5.05;;;19.70;88.00;;;;;;5093524;28;20097;-66
2022/08/13 03:40:08;;;;;;;4.63;4.13;;;19.60;88.90;;;;;;5093084;28;20086;-66
2022/08/13 03:42:35;;;;;;;11.73;4.30;;;19.60;88.30;;;;;;5093617;28;20044;-67
2022/08/13 03:45:02;;;;;;;8.18;4.72;;;19.60;88.20;;;;;;5092259;28;20039;-66
2022/08/13 03:47:28;;;;;;;8.05;4.60;;;19.60;88.10;;;;;;5093383;28;20093;-67
2022/08/13 03:49:53;;;;;;;7.03;3.65;;;19.60;87.90;;;;;;5092868;28;20043;-66
2022/08/13 03:52:20;;;;;;;8.45;4.70;;;19.60;88.00;;;;;;5093226;28;20038;-66
2022/08/13 03:54:45;;;;;;;8.10;4.15;;;19.60;88.10;;;;;;5091756;28;20493;-66
2022/08/13 03:57:12;;;;;;;7.10;4.40;;;19.50;88.10;;;;;;5091783;28;20040;-65
2022/08/13 03:59:40;;;;;;;7.65;4.25;;;19.50;88.50;;;;;;5092686;28;20593;-66
2022/08/13 04:02:06;;;;;;;8.32;5.00;;;19.50;88.00;;;;;;5091682;28;20055;-66
2022/08/13 04:04:32;;;;;;;6.88;4.40;;;19.50;88.30;;;;;;5091852;28;20043;-65
2022/08/13 04:06:59;;;;;;;7.57;3.90;;;19.50;88.30;;;;;;5091483;28;20117;-66
2022/08/13 04:09:24;;;;;;;10.40;4.60;;;19.50;88.00;;;;;;5092004;28;20111;-66
2022/08/13 04:11:50;;;;;;;5.95;4.72;;;19.40;88.20;;;;;;5092357;28;20504;-66
2022/08/13 04:14:15;;;;;;;9.23;4.57;;;19.40;88.70;;;;;;5091012;28;20034;-66
2022/08/13 04:16:41;;;;;;;7.15;4.88;;;19.40;88.70;;;;;;5092386;28;20110;-66
2022/08/13 04:19:07;;;;;;;9.07;5.07;;;19.40;88.70;;;;;;5092638;28;20489;-66
2022/08/13 04:21:35;;;;;;;8.10;4.68;;;19.40;88.50;;;;;;5092003;28;20070;-66
2022/08/13 04:24:04;;;;;;;6.03;4.60;;;19.40;88.40;;;;;;5092049;28;20089;-66
2022/08/13 04:26:31;;;;;;;9.25;4.65;;;19.30;88.40;;;;;;5092339;28;20048;-65
2022/08/13 04:28:57;;;;;;;8.82;4.40;;;19.30;89.20;;;;;;5091268;28;20047;-66
2022/08/13 04:31:24;;;;;;;7.55;4.00;;;19.30;88.60;;;;;;5092396;28;20040;-66
2022/08/13 04:33:50;;;;;;;7.05;4.35;;;19.30;88.80;;;;;;5092548;28;20040;-67
2022/08/13 04:36:17;;;;;;;6.32;4.43;;;19.30;88.60;;;;;;5092078;28;20051;-66
2022/08/13 04:38:42;;;;;;;7.95;4.30;;;19.30;88.40;;;;;;5088656;28;20520;-66
2022/08/13 04:41:09;;;;;;;9.75;4.53;;;19.30;88.10;;;;;;5091654;28;20144;-65
2022/08/13 04:43:34;;;;;;;8.93;5.68;;;19.30;88.00;;;;;;5092260;28;20044;-66
2022/08/13 04:46:00;;;;;;;10.80;4.47;;;19.30;88.00;;;;;;5092183;28;20044;-66
2022/08/13 04:48:28;;;;;;;6.45;4.53;;;19.30;88.00;;;;;;5092216;28;20397;-66
2022/08/13 04:50:54;;;;;;;8.13;4.80;;;19.30;87.80;;;;;;5091756;28;20515;-66
2022/08/13 04:53:23;;;;;;;9.25;4.03;;;19.30;87.80;;;;;;5092297;28;20070;-64
2022/08/13 04:55:49;;;;;;;5.05;4.22;;;19.30;87.90;;;;;;5092189;28;20448;-64
2022/08/13 04:58:14;;;;;;;9.60;4.80;;;19.30;87.60;;;;;;5092063;28;20047;-63
2022/08/13 05:00:44;;;;;;;9.65;5.32;;;19.40;87.50;;;;;;5091852;28;20043;-64
2022/08/13 05:03:13;;;;;;;5.30;4.53;;;19.50;87.50;;;;;;5091987;28;20048;-65
2022/08/13 05:05:39;;;;;;;8.48;5.43;;;19.50;87.20;;;;;;5091697;28;20060;-65
2022/08/13 05:08:07;;;;;;;7.35;4.85;;;19.60;86.70;;;;;;5092069;28;20122;-66
2022/08/13 05:10:37;;;;;;;8.45;4.32;;;19.70;86.10;;;;;;5091785;28;20040;-67
2022/08/13 05:13:04;;;;;;;11.35;5.53;;;19.80;85.30;;;;;;5091998;28;20081;-66
2022/08/13 05:15:31;;;;;;;8.35;4.78;;;19.90;84.60;;;;;;5090388;28;20047;-66
2022/08/13 05:17:56;;;;;;;7.47;4.63;;;20.00;83.60;;;;;;5091875;28;20080;-66
2022/08/13 05:20:22;;;;;;;9.85;4.70;;;20.20;83.10;;;;;;5091377;28;20115;-67
2022/08/13 05:22:48;;;;;;;7.32;4.75;;;20.30;81.90;;;;;;5091980;28;20048;-66
2022/08/13 05:25:16;;;;;;;7.65;5.15;;;20.50;81.10;;;;;;5090371;28;20044;-67
2022/08/13 05:27:42;;;;;;;10.13;5.75;;;20.60;80.10;;;;;;5090418;28;20067;-67
2022/08/13 05:30:09;;;;;;;9.73;4.60;;;20.80;79.50;;;;;;5091499;28;20036;-66
2022/08/13 05:32:38;;;;;;;8.00;4.78;;;20.90;78.60;;;;;;5091744;28;20036;-67
2022/08/13 05:35:11;;;;;;;5.72;4.63;;;21.20;77.80;;;;;;5091456;28;20445;-67
2022/08/13 05:37:37;;;;;;;6.57;4.85;;;21.50;76.80;;;;;;5093844;28;20044;-66
2022/08/13 05:40:03;;;;;;;9.32;4.97;;;21.70;75.80;;;;;;5095589;28;20119;-67
2022/08/13 05:42:33;;;;;;;8.40;5.15;;;21.80;74.70;;;;;;5095824;28;20114;-67
2022/08/13 05:44:59;;;;;;;7.85;4.40;;;22.00;73.50;;;;;;5095648;28;20063;-67
2022/08/13 05:47:25;;;;;;;11.75;4.85;;;22.20;72.60;;;;;;5095442;28;20043;-67
2022/08/13 05:49:53;;;;;;;11.77;5.25;;;22.40;71.50;;;;;;5095221;28;20536;-66
2022/08/13 05:52:18;;;;;;;9.23;4.57;;;22.50;70.90;;;;;;5094246;28;20039;-67
2022/08/13 05:54:44;;;;;;;9.60;4.88;;;22.70;70.00;;;;;;5094268;28;20378;-66
2022/08/13 05:57:09;;;;;;;7.30;4.28;;;22.80;69.40;;;;;;5095527;28;20521;-67
2022/08/13 06:05:04;;;;;;;10.07;4.80;;;22.90;68.00;;;;;;5095196;28;20047;-66
2022/08/13 06:07:30;;;;;;;13.48;5.32;;;23.10;67.20;;;;;;5094072;28;20044;-67
2022/08/13 06:09:56;;;;;;;12.32;4.88;;;23.20;67.00;;;;;;5094909;28;20032;-66
2022/08/13 06:12:21;;;;;;;12.57;5.90;;;23.30;66.60;;;;;;5095078;28;20535;-67
2022/08/13 06:14:49;;;;;;;10.07;5.45;;;23.40;66.10;;;;;;5114513;22;20040;-67
2022/08/13 06:17:16;;;;;;;8.48;4.82;;;23.60;65.90;;;;;;5056419;28;20106;-67
2022/08/13 06:19:43;;;;;;;10.93;4.82;;;23.80;66.10;;;;;;5073309;28;20047;-67
2022/08/13 06:22:11;;;;;;;9.60;4.55;;;23.80;65.20;;;;;;5074763;28;20047;-67
2022/08/13 06:24:37;;;;;;;12.43;4.60;;;24.10;65.00;;;;;;5074526;28;20505;-67
2022/08/13 06:27:11;;;;;;;12.60;4.95;;;24.10;64.20;;;;;;5074455;28;20044;-67
2022/08/13 06:29:40;;;;;;;17.15;5.43;;;24.30;64.10;;;;;;5074173;28;20494;-67
2022/08/13 06:32:06;;;;;;;15.55;5.43;;;24.60;64.00;;;;;;5074552;28;20059;-67
2022/08/13 06:34:36;;;;;;;16.10;4.95;;;24.70;63.40;;;;;;5074398;28;20094;-67
2022/08/13 06:37:04;;;;;;;14.23;5.90;;;24.70;62.80;;;;;;5074555;28;20040;-67
2022/08/13 06:39:31;;;;;;;8.95;5.40;;;24.70;62.30;;;;;;5073988;28;20123;-67
2022/08/13 06:42:04;;;;;;;10.90;4.93;;;24.90;62.20;;;;;;5074551;28;20044;-67
2022/08/13 06:44:34;;;;;;;6.88;4.78;;;25.00;61.50;;;;;;5074256;28;20102;-67
2022/08/13 06:47:03;;;;;;;12.18;4.90;;;25.10;61.30;;;;;;5074305;28;20124;-67
2022/08/13 06:49:31;;;;;;;12.35;4.80;;;25.30;61.50;;;;;;5073345;28;20056;-67
2022/08/13 06:51:57;;;;;;;11.20;4.57;;;25.50;60.70;;;;;;5074075;28;20041;-67
2022/08/13 06:54:24;;;;;;;7.03;4.00;;;25.40;59.40;;;;;;5074100;28;20042;-67
2022/08/13 06:56:52;;;;;;;10.75;3.90;;;25.60;60.30;;;;;;5074306;28;20072;-67
2022/08/13 06:59:19;;;;;;;11.98;4.63;;;25.80;59.30;;;;;;5073860;28;20127;-67
2022/08/13 07:01:46;;;;;;;12.65;3.70;;;25.90;59.20;;;;;;5074002;28;20055;-67
2022/08/13 07:04:19;;;;;;;8.10;3.67;;;26.00;58.60;;;;;;5073958;28;20048;-67
2022/08/13 07:06:47;;;;;;;6.45;3.72;;;26.30;58.10;;;;;;5073710;28;20036;-67
2022/08/13 07:09:13;;;;;;;9.45;4.35;;;26.40;57.60;;;;;;5073679;28;20435;-67
2022/08/13 07:11:44;;;;;;;9.10;3.80;;;26.50;57.20;;;;;;5073938;28;20033;-67
2022/08/13 07:14:11;;;;;;;6.82;3.03;;;26.80;56.70;;;;;;5073823;28;20036;-67
2022/08/13 07:16:36;;;;;;;8.45;3.28;;;27.00;56.20;;;;;;5073699;28;20067;-67
2022/08/13 07:19:03;;;;;;;4.80;3.10;;;27.20;55.50;;;;;;5072832;28;20506;-67
2022/08/13 07:21:31;;;;;;;6.72;3.30;;;27.50;55.00;;;;;;5073249;28;20048;-67
2022/08/13 07:23:58;;;;;;;6.82;3.55;;;27.70;54.70;;;;;;5073672;28;20041;-68
2022/08/13 07:26:29;;;;;;;6.75;2.97;;;27.40;54.40;;;;;;5073364;28;20057;-67
2022/08/13 07:28:55;;;;;;;6.18;2.80;;;27.60;54.00;;;;;;5073432;28;20029;-67
2022/08/13 07:31:26;;;;;;;4.43;2.83;;;27.80;53.70;;;;;;5073164;28;20529;-67
2022/08/13 07:33:54;;;;;;;7.78;3.67;;;28.10;53.10;;;;;;5073444;28;20040;-68
2022/08/13 07:36:21;;;;;;;6.50;2.65;;;28.30;52.40;;;;;;5073184;28;20135;-68
2022/08/13 07:38:47;;;;;;;7.82;2.80;;;28.20;51.90;;;;;;5073255;28;20484;-67
2022/08/13 07:41:14;;;;;;;5.15;2.78;;;28.20;51.90;;;;;;5073011;28;20501;-67
2022/08/13 07:43:44;;;;;;;6.03;2.45;;;28.00;51.00;;;;;;5073219;28;20047;-67
2022/08/13 07:46:17;;;;;;;10.00;2.78;;;28.20;51.30;;;;;;5072719;28;20048;-68
2022/08/13 07:48:49;;;;;;;6.90;2.47;;;28.50;51.10;;;;;;5072908;28;20455;-67
2022/08/13 07:51:21;;;;;;;4.72;2.47;;;28.60;51.00;;;;;;5072821;28;20111;-68
2022/08/13 07:53:47;;;;;;;8.30;2.30;;;28.80;51.00;;;;;;5072172;28;20040;-67
2022/08/13 07:56:18;;;;;;;10.60;2.40;;;29.00;50.20;;;;;;5072489;28;20045;-68
2022/08/13 07:58:44;;;;;;;3.50;2.20;;;28.90;49.60;;;;;;5072775;28;20033;-68
2022/08/13 08:01:11;;;;;;;4.85;2.00;;;28.90;49.20;;;;;;5071863;28;20399;-67
2022/08/13 08:03:39;;;;;;;4.57;2.22;;;28.90;49.50;;;;;;5072869;28;20088;-68
2022/08/13 08:06:05;;;;;;;3.70;1.88;;;29.10;49.50;;;;;;5054862;28;20162;-71
2022/08/13 08:08:33;;;;;;;5.15;2.20;;;29.40;49.20;;;;;;5072655;28;20119;-68
2022/08/13 08:11:00;;;;;;;3.45;2.25;;;29.60;49.30;;;;;;5072319;28;20032;-68
2022/08/13 08:13:28;;;;;;;7.68;1.90;;;29.80;48.70;;;;;;5072534;28;20064;-68
2022/08/13 08:15:54;;;;;;;7.68;2.15;;;29.90;48.30;;;;;;5072388;28;20044;-68
2022/08/13 08:18:20;;;;;;;5.57;1.95;;;30.00;47.80;;;;;;5072623;28;20062;-68
2022/08/13 08:20:45;;;;;;;4.55;1.85;;;30.20;47.90;;;;;;5071406;28;20040;-68
2022/08/13 08:23:11;;;;;;;2.97;1.30;;;30.10;46.50;;;;;;5071943;28;20041;-68
2022/08/13 08:25:39;;;;;;;4.93;1.48;;;30.10;46.50;;;;;;5053886;28;20042;-68
2022/08/13 08:28:05;;;;;;;6.05;1.60;;;30.40;46.30;;;;;;5071682;28;20040;-68
2022/08/13 08:30:30;;;;;;;1.70;1.27;;;30.40;46.00;;;;;;5054123;28;20040;-68
2022/08/13 08:32:57;;;;;;;4.43;1.85;;;30.50;45.50;;;;;;5072297;28;20498;-68
2022/08/13 08:35:24;;;;;;;2.85;1.55;;;30.30;45.00;;;;;;5067602;28;20490;-68
2022/08/13 08:43:32;;;;;;;3.75;1.60;;;30.50;44.90;;;;;;5072339;28;20075;-68
2022/08/13 08:45:59;;;;;;;2.30;1.30;;;30.50;44.20;;;;;;5071976;28;20036;-68
2022/08/13 08:48:27;;;;;;;7.05;1.70;;;30.60;44.40;;;;;;5071962;28;20040;-68
2022/08/13 08:50:54;;;;;;;5.63;1.73;;;30.40;44.40;;;;;;5071636;28;20047;-69
2022/08/13 08:53:19;;;;;;;3.65;1.70;;;30.50;45.10;;;;;;5072060;28;20115;-68
2022/08/13 08:55:50;;;;;;;7.20;1.75;;;30.80;44.90;;;;;;5071798;28;20075;-68
2022/08/13 08:58:18;;;;;;;5.38;1.38;;;31.10;44.00;;;;;;5071224;28;20028;-68
2022/08/13 09:00:46;;;;;;;6.55;1.52;;;31.10;43.80;;;;;;5070951;28;20040;-69
2022/08/13 09:03:16;;;;;;;5.25;1.67;;;31.10;43.20;;;;;;5071229;28;20060;-68
2022/08/13 09:05:42;;;;;;;7.10;1.50;;;31.00;42.80;;;;;;5068837;28;20037;-68
2022/08/13 09:08:08;;;;;;;3.78;1.80;;;31.00;43.20;;;;;;5071334;28;20047;-68
2022/08/13 09:10:35;;;;;;;3.83;1.42;;;31.00;43.00;;;;;;5071058;28;20041;-68
2022/08/13 09:13:03;;;;;;;4.40;1.50;;;31.10;42.30;;;;;;5071300;28;20033;-68
2022/08/13 09:15:34;;;;;;;2.00;1.23;;;31.00;42.00;;;;;;5070994;28;20048;-69
2022/08/13 09:18:01;;;;;;;3.60;1.45;;;31.20;41.70;;;;;;5067936;28;20055;-68
2022/08/13 09:20:30;;;;;;;5.35;1.38;;;31.10;41.60;;;;;;5047254;28;20087;-68
2022/08/13 09:23:12;;;;;;;4.97;1.60;;;31.20;42.10;;;;;;5069725;28;20135;-68
2022/08/13 09:25:48;;;;;;;6.00;1.70;;;31.20;41.70;;;;;;5052401;28;20052;-68
2022/08/13 09:28:22;;;;;;;8.40;1.45;;;30.90;41.80;;;;;;5069622;28;20482;-69
2022/08/13 09:30:50;;;;;;;3.03;1.42;;;30.90;41.90;;;;;;5069002;28;20068;-68
2022/08/13 09:33:20;;;;;;;3.85;1.58;;;30.80;41.20;;;;;;5071553;28;20594;-68
2022/08/13 09:35:53;;;;;;;3.88;1.25;;;30.70;41.30;;;;;;5071530;28;20072;-69
2022/08/13 09:38:21;;;;;;;3.45;1.30;;;30.70;41.00;;;;;;5053810;28;20032;-68
2022/08/13 09:41:00;;;;;;;2.95;1.17;;;30.60;40.60;;;;;;5053131;28;20044;-69
2022/08/13 09:43:31;;;;;;;5.38;1.48;;;30.80;40.80;;;;;;5053587;28;20041;-68
2022/08/13 09:45:56;;;;;;;4.03;1.40;;;30.80;41.20;;;;;;5053308;28;20036;-69
2022/08/13 09:48:24;;;;;;;2.65;1.10;;;30.90;41.40;;;;;;5071358;28;20037;-68
2022/08/13 09:50:52;;;;;;;5.15;1.33;;;30.90;39.90;;;;;;5071011;28;20052;-68
2022/08/13 09:53:18;;;;;;;3.17;1.20;;;31.00;39.50;;;;;;5071080;28;20037;-68
2022/08/13 09:55:45;;;;;;;4.60;1.10;;;31.00;39.50;;;;;;5071420;28;20040;-68
2022/08/13 09:58:11;;;;;;;3.83;1.60;;;31.00;39.70;;;;;;5071419;28;20052;-66
2022/08/13 10:00:37;;;;;;;3.45;1.40;;;30.90;40.10;;;;;;5070981;28;20037;-67
2022/08/13 10:03:06;;;;;;;1.33;1.15;;;30.90;40.00;;;;;;5071153;28;20049;-65
2022/08/13 10:05:34;;;;;;;2.75;1.10;;;31.10;39.70;;;;;;5070261;28;20037;-66
2022/08/13 10:08:01;;;;;;;5.25;1.85;;;31.00;39.40;;;;;;5070303;28;20409;-66
2022/08/13 10:10:27;;;;;;;3.00;1.30;;;31.10;39.30;;;;;;5070675;28;20033;-65
2022/08/13 10:12:52;;;;;;;4.05;1.33;;;31.00;39.10;;;;;;5071012;28;20051;-66
2022/08/13 10:15:18;;;;;;;3.55;1.25;;;31.10;39.20;;;;;;5070867;28;20098;-66
2022/08/13 10:17:53;;;;;;;3.50;1.20;;;31.10;39.00;;;;;;5070981;28;20048;-66
2022/08/13 10:20:24;;;;;;;3.53;1.40;;;31.10;38.90;;;;;;5070684;28;20044;-67
2022/08/13 10:22:51;;;;;;;10.13;1.88;;;31.10;38.40;;;;;;5071780;28;20040;-66
2022/08/13 10:25:17;;;;;;;3.17;1.13;;;30.90;38.20;;;;;;5074508;28;20530;-65
2022/08/13 10:27:47;;;;;;;5.80;1.58;;;31.10;37.70;;;;;;5074518;28;20041;-65
2022/08/13 10:30:13;;;;;;;4.43;1.00;;;30.90;37.90;;;;;;5067074;28;20120;-66
2022/08/13 10:32:39;;;;;;;3.53;1.17;;;30.80;38.00;;;;;;5065150;28;20111;-66
2022/08/13 10:35:05;;;;;;;1.40;1.10;;;30.90;37.90;;;;;;5072532;28;20032;-65
2022/08/13 10:37:32;;;;;;;4.47;1.65;;;30.80;38.10;;;;;;5074266;28;20468;-66
2022/08/13 10:39:58;;;;;;;5.55;1.00;;;30.80;38.40;;;;;;5073794;28;20517;-65
2022/08/13 10:42:25;;;;;;;3.03;1.42;;;30.80;38.40;;;;;;5073953;28;20506;-65
2022/08/13 10:44:52;;;;;;;2.33;1.33;;;30.60;38.20;;;;;;5073867;28;20991;-65
2022/08/13 10:47:22;;;;;;;6.47;1.33;;;30.70;38.40;;;;;;5073805;28;20488;-66
2022/08/13 10:49:49;;;;;;;3.85;1.30;;;30.60;38.50;;;;;;5071678;28;20036;-66
2022/08/13 10:52:18;;;;;;;1.70;1.05;;;30.80;38.30;;;;;;5071131;28;20080;-65
2022/08/13 10:54:45;;;;;;;3.97;1.27;;;30.90;38.10;;;;;;5073501;28;20028;-66
2022/08/13 10:57:12;;;;;;;5.15;1.27;;;30.80;38.10;;;;;;5073747;28;20047;-66
2022/08/13 10:59:39;;;;;;;4.80;1.23;;;30.80;38.20;;;;;;5073543;28;20040;-65
2022/08/13 11:02:06;;;;;;;4.55;1.40;;;30.60;38.30;;;;;;5073531;28;20094;-65
2022/08/13 11:04:33;;;;;;;1.67;0.90;;;30.60;39.00;;;;;;5073361;28;20045;-65
2022/08/13 11:07:00;;;;;;;4.10;1.50;;;30.50;38.60;;;;;;5073697;28;20040;-66
2022/08/13 11:09:26;;;;;;;3.25;1.60;;;30.50;38.60;;;;;;5073324;28;20047;-66
2022/08/13 11:11:57;;;;;;;3.58;1.48;;;30.40;38.40;;;;;;5073504;28;20066;-66
2022/08/13 11:14:24;;;;;;;1.35;1.23;;;30.40;38.20;;;;;;5073293;28;20098;-66
2022/08/13 11:19:16;;;;;;;1.52;1.30;;;30.50;38.30;;;;;;5073299;28;20479;-65
2022/08/13 11:21:43;;;;;;;2.90;1.25;;;30.40;37.90;;;;;;5073451;28;20052;-66
2022/08/13 11:24:10;;;;;;;3.90;1.42;;;30.50;38.10;;;;;;5073536;28;20114;-66
2022/08/13 11:26:36;;;;;;;6.13;1.10;;;30.60;37.80;;;;;;5073070;28;20041;-66
2022/08/13 11:29:03;;;;;;;3.35;1.40;;;30.50;36.80;;;;;;5073086;28;20119;-66
2022/08/13 11:31:28;;;;;;;4.10;1.60;;;30.50;37.10;;;;;;5072781;28;20044;-65
2022/08/13 11:33:54;;;;;;;1.58;1.13;;;30.60;37.30;;;;;;5072679;28;20047;-65
2022/08/13 11:36:19;;;;;;;3.65;1.33;;;30.80;37.50;;;;;;5072383;28;20036;-66
2022/08/13 11:38:45;;;;;;;2.67;1.40;;;30.80;37.30;;;;;;5073078;28;20398;-66
2022/08/13 11:41:11;;;;;;;2.95;1.55;;;30.80;37.80;;;;;;5072621;28;20052;-65
2022/08/13 11:43:36;;;;;;;1.50;1.10;;;30.70;37.80;;;;;;5072839;28;20040;-66
2022/08/13 11:46:02;;;;;;;2.28;1.35;;;30.70;37.90;;;;;;5072757;28;20037;-66
2022/08/13 11:48:27;;;;;;;2.58;1.13;;;30.60;37.60;;;;;;5072982;28;20042;-66
2022/08/13 11:50:55;;;;;;;2.05;1.30;;;30.60;36.50;;;;;;5072470;28;20048;-65
2022/08/13 11:53:21;;;;;;;6.88;1.20;;;30.60;36.10;;;;;;5072808;28;20075;-65
2022/08/13 11:55:48;;;;;;;4.07;1.17;;;30.80;36.30;;;;;;5072629;28;20029;-65
2022/08/13 11:58:13;;;;;;;1.23;1.10;;;30.80;36.40;;;;;;5072427;28;20123;-65
2022/08/13 12:00:42;;;;;;;2.65;1.20;;;30.90;36.30;;;;;;5072487;28;20124;-65
2022/08/13 12:03:09;;;;;;;1.58;1.27;;;30.90;36.80;;;;;;5072694;28;20098;-65
2022/08/13 12:05:35;;;;;;;2.10;1.45;;;31.10;37.00;;;;;;5069933;28;21624;-66
2022/08/13 12:08:01;;;;;;;3.00;1.25;;;31.10;37.10;;;;;;5070515;28;20040;-66
2022/08/13 12:10:27;;;;;;;1.27;1.00;;;30.80;36.80;;;;;;5069419;28;20036;-66
2022/08/13 12:12:53;;;;;;;3.92;1.45;;;31.10;37.30;;;;;;5072185;28;20431;-66
2022/08/13 12:15:18;;;;;;;5.88;1.23;;;31.10;37.60;;;;;;5072502;28;20123;-66
2022/08/13 12:17:47;;;;;;;3.75;1.63;;;30.90;37.00;;;;;;5072432;28;20047;-66
2022/08/13 12:20:22;;;;;;;4.75;1.40;;;30.80;36.90;;;;;;5072517;28;20028;-66
2022/08/13 12:22:50;;;;;;;4.53;1.45;;;30.60;36.90;;;;;;5072891;28;20043;-66
2022/08/13 12:25:15;;;;;;;1.85;1.40;;;30.60;37.40;;;;;;5072720;28;20028;-65
2022/08/13 12:27:41;;;;;;;3.30;1.50;;;30.50;38.00;;;;;;5071955;28;20132;-66
2022/08/13 12:30:07;;;;;;;4.18;1.63;;;30.50;37.70;;;;;;5071741;28;20079;-65
2022/08/13 12:32:33;;;;;;;2.42;1.38;;;30.60;37.70;;;;;;5054223;28;20044;-66
2022/08/13 12:34:59;;;;;;;4.57;1.60;;;30.50;37.80;;;;;;5071858;28;20043;-66
2022/08/13 12:37:25;;;;;;;2.38;1.38;;;30.60;37.70;;;;;;5071968;28;20032;-66
2022/08/13 12:39:56;;;;;;;3.35;1.70;;;30.50;37.70;;;;;;5071532;28;20391;-66
2022/08/13 12:42:23;;;;;;;3.00;1.33;;;30.60;37.90;;;;;;5071993;28;20044;-65
2022/08/13 12:44:48;;;;;;;3.88;1.70;;;30.50;38.60;;;;;;5072013;28;20052;-66
2022/08/13 12:47:14;;;;;;;3.25;1.60;;;30.60;38.50;;;;;;5053369;28;20040;-65
2022/08/13 12:49:39;;;;;;;3.88;1.33;;;30.50;38.40;;;;;;5071625;28;20139;-65
2022/08/13 12:52:05;;;;;;;5.05;2.10;;;30.50;38.70;;;;;;5071698;28;20036;-66
2022/08/13 12:54:31;;;;;;;3.30;1.60;;;30.60;39.00;;;;;;5071442;28;20037;-65
2022/08/13 12:56:56;;;;;;;1.73;1.45;;;30.60;38.60;;;;;;5071871;28;20036;-65
2022/08/13 12:59:22;;;;;;;1.83;1.50;;;30.50;38.70;;;;;;5071501;28;20401;-65
2022/08/13 13:01:52;;;;;;;3.03;1.80;;;30.50;38.70;;;;;;5071738;28;20052;-66
2022/08/13 13:04:22;;;;;;;3.28;1.92;;;30.60;38.80;;;;;;5071558;28;20452;-66
2022/08/13 13:06:49;;;;;;;3.45;1.80;;;30.50;38.60;;;;;;5071484;28;20406;-65
2022/08/13 13:09:14;;;;;;;5.50;2.00;;;30.50;38.80;;;;;;5071001;28;20090;-65